sensor_id;sensor_type;location;lat;lon;timestamp;P1;durP1;ratioP1;P2;durP2;ratioP2
32329;SDS011;18807;52.434;13.238;2022-08-30T00:01:21;2.70;;;1.20;;
32329;SDS011;18807;52.434;13.238;2022-08-30T00:08:58;1.60;;;1.38;;
32329;SDS011;18807;52.434;13.238;2022-08-30T00:16:33;1.70;;;1.45;;
32329;SDS011;18807;52.434;13.238;2022-08-30T00:31:42;2.72;;;1.88;;
32329;SDS011;18807;52.434;13.238;2022-08-30T00:39:16;1.80;;;1.70;;
32329;SDS011;18807;52.434;13.238;2022-08-30T00:46:51;2.17;;;1.98;;
32329;SDS011;18807;52.434;13.238;2022-08-30T01:02:00;1.70;;;1.60;;
32329;SDS011;18807;52.434;13.238;2022-08-30T01:09:35;2.40;;;1.90;;
32329;SDS011;18807;52.434;13.238;2022-08-30T01:17:10;2.10;;;1.90;;
32329;SDS011;18807;52.434;13.238;2022-08-30T01:24:50;2.15;;;1.95;;
32329;SDS011;18807;52.434;13.238;2022-08-30T01:32:27;2.83;;;2.30;;
32329;SDS011;18807;52.434;13.238;2022-08-30T01:40:03;2.15;;;1.95;;
32329;SDS011;18807;52.434;13.238;2022-08-30T01:47:39;2.25;;;2.03;;
32329;SDS011;18807;52.434;13.238;2022-08-30T01:55:14;2.57;;;2.33;;
32329;SDS011;18807;52.434;13.238;2022-08-30T02:02:48;2.35;;;2.10;;
32329;SDS011;18807;52.434;13.238;2022-08-30T02:10:25;3.07;;;1.97;;
32329;SDS011;18807;52.434;13.238;2022-08-30T02:17:59;2.30;;;2.00;;
32329;SDS011;18807;52.434;13.238;2022-08-30T02:25:35;3.13;;;2.83;;
32329;SDS011;18807;52.434;13.238;2022-08-30T02:33:08;2.53;;;2.33;;
32329;SDS011;18807;52.434;13.238;2022-08-30T02:40:43;2.75;;;2.50;;
32329;SDS011;18807;52.434;13.238;2022-08-30T02:48:17;3.60;;;2.78;;
32329;SDS011;18807;52.434;13.238;2022-08-30T02:55:53;3.90;;;3.08;;
32329;SDS011;18807;52.434;13.238;2022-08-30T03:03:29;4.10;;;3.28;;
32329;SDS011;18807;52.434;13.238;2022-08-30T03:11:04;3.42;;;2.90;;
32329;SDS011;18807;52.434;13.238;2022-08-30T03:18:38;2.70;;;2.30;;
32329;SDS011;18807;52.434;13.238;2022-08-30T03:26:15;3.38;;;2.85;;
32329;SDS011;18807;52.434;13.238;2022-08-30T03:41:24;4.93;;;4.00;;
32329;SDS011;18807;52.434;13.238;2022-08-30T03:48:58;3.88;;;3.47;;
32329;SDS011;18807;52.434;13.238;2022-08-30T03:56:34;4.97;;;4.03;;
32329;SDS011;18807;52.434;13.238;2022-08-30T04:04:08;5.95;;;4.65;;
32329;SDS011;18807;52.434;13.238;2022-08-30T04:11:44;5.17;;;4.40;;
32329;SDS011;18807;52.434;13.238;2022-08-30T04:19:17;5.65;;;4.50;;
32329;SDS011;18807;52.434;13.238;2022-08-30T04:26:53;7.63;;;5.00;;
32329;SDS011;18807;52.434;13.238;2022-08-30T04:34:26;5.28;;;4.47;;
32329;SDS011;18807;52.434;13.238;2022-08-30T04:42:02;6.28;;;4.65;;
32329;SDS011;18807;52.434;13.238;2022-08-30T04:49:36;6.30;;;4.90;;
32329;SDS011;18807;52.434;13.238;2022-08-30T04:57:11;7.93;;;4.50;;
32329;SDS011;18807;52.434;13.238;2022-08-30T05:04:45;7.43;;;4.88;;
32329;SDS011;18807;52.434;13.238;2022-08-30T05:12:34;5.72;;;4.05;;
32329;SDS011;18807;52.434;13.238;2022-08-30T05:20:09;5.93;;;4.82;;
32329;SDS011;18807;52.434;13.238;2022-08-30T05:27:45;5.60;;;4.63;;
32329;SDS011;18807;52.434;13.238;2022-08-30T05:35:20;6.55;;;4.55;;
32329;SDS011;18807;52.434;13.238;2022-08-30T05:42:58;6.10;;;4.90;;
32329;SDS011;18807;52.434;13.238;2022-08-30T05:50:32;5.85;;;5.00;;
32329;SDS011;18807;52.434;13.238;2022-08-30T05:58:12;8.25;;;5.53;;
32329;SDS011;18807;52.434;13.238;2022-08-30T06:13:21;7.90;;;5.88;;
32329;SDS011;18807;52.434;13.238;2022-08-30T06:20:55;9.63;;;6.35;;
32329;SDS011;18807;52.434;13.238;2022-08-30T06:28:31;9.53;;;7.57;;
32329;SDS011;18807;52.434;13.238;2022-08-30T06:36:05;8.75;;;7.00;;
32329;SDS011;18807;52.434;13.238;2022-08-30T06:43:42;14.70;;;9.35;;
32329;SDS011;18807;52.434;13.238;2022-08-30T06:51:20;12.75;;;8.77;;
32329;SDS011;18807;52.434;13.238;2022-08-30T06:58:56;14.25;;;10.13;;
32329;SDS011;18807;52.434;13.238;2022-08-30T07:06:31;10.00;;;7.75;;
32329;SDS011;18807;52.434;13.238;2022-08-30T07:14:06;13.00;;;9.23;;
32329;SDS011;18807;52.434;13.238;2022-08-30T07:21:41;9.35;;;7.20;;
32329;SDS011;18807;52.434;13.238;2022-08-30T07:29:17;4.72;;;4.25;;
32329;SDS011;18807;52.434;13.238;2022-08-30T07:36:52;5.68;;;4.00;;
32329;SDS011;18807;52.434;13.238;2022-08-30T07:44:28;4.00;;;3.70;;
32329;SDS011;18807;52.434;13.238;2022-08-30T07:52:02;3.75;;;3.17;;
32329;SDS011;18807;52.434;13.238;2022-08-30T07:59:37;3.80;;;2.57;;
32329;SDS011;18807;52.434;13.238;2022-08-30T08:07:11;4.93;;;4.10;;
32329;SDS011;18807;52.434;13.238;2022-08-30T08:14:46;3.95;;;3.58;;
32329;SDS011;18807;52.434;13.238;2022-08-30T08:22:21;4.93;;;3.88;;
32329;SDS011;18807;52.434;13.238;2022-08-30T08:29:56;5.35;;;3.97;;
32329;SDS011;18807;52.434;13.238;2022-08-30T08:37:30;5.40;;;4.45;;
32329;SDS011;18807;52.434;13.238;2022-08-30T08:45:06;6.38;;;5.10;;
32329;SDS011;18807;52.434;13.238;2022-08-30T08:52:47;5.22;;;4.70;;
32329;SDS011;18807;52.434;13.238;2022-08-30T09:01:02;8.43;;;7.20;;
32329;SDS011;18807;52.434;13.238;2022-08-30T09:08:37;9.43;;;6.90;;
32329;SDS011;18807;52.434;13.238;2022-08-30T09:16:12;7.40;;;6.43;;
32329;SDS011;18807;52.434;13.238;2022-08-30T09:24:38;7.57;;;6.78;;
32329;SDS011;18807;52.434;13.238;2022-08-30T09:32:17;6.13;;;5.53;;
32329;SDS011;18807;52.434;13.238;2022-08-30T09:39:57;4.78;;;4.35;;
32329;SDS011;18807;52.434;13.238;2022-08-30T09:47:33;5.57;;;4.95;;
32329;SDS011;18807;52.434;13.238;2022-08-30T09:55:13;4.45;;;4.05;;
32329;SDS011;18807;52.434;13.238;2022-08-30T10:03:00;4.20;;;3.45;;
32329;SDS011;18807;52.434;13.238;2022-08-30T10:11:09;5.13;;;2.65;;
32329;SDS011;18807;52.434;13.238;2022-08-30T10:18:52;2.90;;;1.95;;
32329;SDS011;18807;52.434;13.238;2022-08-30T10:26:39;3.30;;;2.00;;
32329;SDS011;18807;52.434;13.238;2022-08-30T10:34:19;1.92;;;1.50;;
32329;SDS011;18807;52.434;13.238;2022-08-30T10:41:59;1.80;;;1.58;;
32329;SDS011;18807;52.434;13.238;2022-08-30T10:49:42;3.47;;;1.60;;
32329;SDS011;18807;52.434;13.238;2022-08-30T10:57:19;2.60;;;1.40;;
32329;SDS011;18807;52.434;13.238;2022-08-30T11:05:03;1.77;;;1.65;;
32329;SDS011;18807;52.434;13.238;2022-08-30T11:12:54;2.08;;;1.65;;
32329;SDS011;18807;52.434;13.238;2022-08-30T11:20:39;1.80;;;1.67;;
32329;SDS011;18807;52.434;13.238;2022-08-30T11:53:14;2.80;;;2.08;;
32329;SDS011;18807;52.434;13.238;2022-08-30T12:01:14;6.82;;;2.22;;
32329;SDS011;18807;52.434;13.238;2022-08-30T12:09:56;1.40;;;1.30;;
32329;SDS011;18807;52.434;13.238;2022-08-30T12:17:47;1.63;;;1.30;;
32329;SDS011;18807;52.434;13.238;2022-08-30T12:34:07;4.90;;;1.77;;
32329;SDS011;18807;52.434;13.238;2022-08-30T12:49:18;1.17;;;0.90;;
32329;SDS011;18807;52.434;13.238;2022-08-30T12:56:58;0.85;;;0.73;;
32329;SDS011;18807;52.434;13.238;2022-08-30T13:04:54;0.63;;;0.60;;
32329;SDS011;18807;52.434;13.238;2022-08-30T13:12:30;1.98;;;0.65;;
32329;SDS011;18807;52.434;13.238;2022-08-30T13:20:05;1.05;;;0.50;;
32329;SDS011;18807;52.434;13.238;2022-08-30T13:27:55;1.35;;;0.80;;
32329;SDS011;18807;52.434;13.238;2022-08-30T13:35:29;1.17;;;1.08;;
32329;SDS011;18807;52.434;13.238;2022-08-30T13:43:05;0.70;;;0.60;;
32329;SDS011;18807;52.434;13.238;2022-08-30T13:50:39;0.80;;;0.60;;
32329;SDS011;18807;52.434;13.238;2022-08-30T13:58:15;2.22;;;1.20;;
32329;SDS011;18807;52.434;13.238;2022-08-30T14:05:49;1.67;;;1.05;;
32329;SDS011;18807;52.434;13.238;2022-08-30T14:13:46;2.25;;;1.80;;
32329;SDS011;18807;52.434;13.238;2022-08-30T14:21:40;2.53;;;1.70;;
32329;SDS011;18807;52.434;13.238;2022-08-30T14:29:22;2.13;;;1.60;;
32329;SDS011;18807;52.434;13.238;2022-08-30T14:37:01;3.63;;;2.15;;
32329;SDS011;18807;52.434;13.238;2022-08-30T14:44:39;2.10;;;1.80;;
32329;SDS011;18807;52.434;13.238;2022-08-30T14:52:28;3.75;;;2.17;;
32329;SDS011;18807;52.434;13.238;2022-08-30T15:00:05;1.63;;;1.20;;
32329;SDS011;18807;52.434;13.238;2022-08-30T15:07:41;1.50;;;1.40;;
32329;SDS011;18807;52.434;13.238;2022-08-30T15:15:17;1.67;;;1.57;;
32329;SDS011;18807;52.434;13.238;2022-08-30T15:22:53;3.38;;;1.88;;
32329;SDS011;18807;52.434;13.238;2022-08-30T15:30:29;2.10;;;1.90;;
32329;SDS011;18807;52.434;13.238;2022-08-30T15:38:03;2.80;;;2.30;;
32329;SDS011;18807;52.434;13.238;2022-08-30T15:45:38;4.90;;;2.08;;
32329;SDS011;18807;52.434;13.238;2022-08-30T15:53:13;3.53;;;2.45;;
32329;SDS011;18807;52.434;13.238;2022-08-30T16:00:49;2.77;;;2.20;;
32329;SDS011;18807;52.434;13.238;2022-08-30T16:08:23;4.60;;;2.88;;
32329;SDS011;18807;52.434;13.238;2022-08-30T16:15:59;3.83;;;2.70;;
32329;SDS011;18807;52.434;13.238;2022-08-30T16:23:34;3.97;;;3.10;;
32329;SDS011;18807;52.434;13.238;2022-08-30T16:31:10;2.75;;;2.45;;
32329;SDS011;18807;52.434;13.238;2022-08-30T16:38:44;3.38;;;2.65;;
32329;SDS011;18807;52.434;13.238;2022-08-30T16:46:21;2.75;;;2.50;;
32329;SDS011;18807;52.434;13.238;2022-08-30T16:53:59;3.50;;;2.78;;
32329;SDS011;18807;52.434;13.238;2022-08-30T17:01:36;3.05;;;2.50;;
32329;SDS011;18807;52.434;13.238;2022-08-30T17:09:10;2.60;;;2.30;;
32329;SDS011;18807;52.434;13.238;2022-08-30T17:16:47;2.83;;;2.60;;
32329;SDS011;18807;52.434;13.238;2022-08-30T17:24:21;2.58;;;2.38;;
32329;SDS011;18807;52.434;13.238;2022-08-30T17:31:58;2.70;;;2.05;;
32329;SDS011;18807;52.434;13.238;2022-08-30T17:39:32;2.58;;;2.38;;
32329;SDS011;18807;52.434;13.238;2022-08-30T17:47:08;2.17;;;1.90;;
32329;SDS011;18807;52.434;13.238;2022-08-30T17:54:42;3.50;;;2.30;;
32329;SDS011;18807;52.434;13.238;2022-08-30T18:02:17;3.83;;;2.00;;
32329;SDS011;18807;52.434;13.238;2022-08-30T18:10:01;4.30;;;2.30;;
32329;SDS011;18807;52.434;13.238;2022-08-30T18:17:38;3.08;;;2.00;;
32329;SDS011;18807;52.434;13.238;2022-08-30T18:25:12;2.63;;;2.17;;
32329;SDS011;18807;52.434;13.238;2022-08-30T18:32:49;3.50;;;2.35;;
32329;SDS011;18807;52.434;13.238;2022-08-30T18:40:22;2.63;;;2.25;;
32329;SDS011;18807;52.434;13.238;2022-08-30T18:47:58;2.70;;;2.50;;
32329;SDS011;18807;52.434;13.238;2022-08-30T18:55:33;3.92;;;1.92;;
32329;SDS011;18807;52.434;13.238;2022-08-30T19:03:08;2.17;;;1.85;;
32329;SDS011;18807;52.434;13.238;2022-08-30T19:10:42;3.83;;;2.10;;
32329;SDS011;18807;52.434;13.238;2022-08-30T19:18:18;1.50;;;1.40;;
32329;SDS011;18807;52.434;13.238;2022-08-30T19:25:52;2.80;;;1.77;;
32329;SDS011;18807;52.434;13.238;2022-08-30T19:33:30;2.60;;;1.83;;
32329;SDS011;18807;52.434;13.238;2022-08-30T19:41:04;2.83;;;2.35;;
32329;SDS011;18807;52.434;13.238;2022-08-30T19:48:40;3.90;;;2.20;;
32329;SDS011;18807;52.434;13.238;2022-08-30T19:56:15;2.05;;;1.83;;
32329;SDS011;18807;52.434;13.238;2022-08-30T20:03:50;3.00;;;2.43;;
32329;SDS011;18807;52.434;13.238;2022-08-30T20:11:28;5.32;;;1.90;;
32329;SDS011;18807;52.434;13.238;2022-08-30T20:19:03;2.90;;;2.28;;
32329;SDS011;18807;52.434;13.238;2022-08-30T20:26:37;2.97;;;2.47;;
32329;SDS011;18807;52.434;13.238;2022-08-30T20:34:13;3.47;;;2.30;;
32329;SDS011;18807;52.434;13.238;2022-08-30T20:41:47;4.03;;;2.58;;
32329;SDS011;18807;52.434;13.238;2022-08-30T20:49:22;2.80;;;2.40;;
32329;SDS011;18807;52.434;13.238;2022-08-30T20:56:56;2.55;;;2.30;;
32329;SDS011;18807;52.434;13.238;2022-08-30T21:04:31;1.95;;;1.70;;
32329;SDS011;18807;52.434;13.238;2022-08-30T21:19:40;2.25;;;1.50;;
32329;SDS011;18807;52.434;13.238;2022-08-30T21:27:15;1.90;;;1.33;;
32329;SDS011;18807;52.434;13.238;2022-08-30T21:34:50;1.67;;;1.13;;
32329;SDS011;18807;52.434;13.238;2022-08-30T21:42:41;1.33;;;1.23;;
32329;SDS011;18807;52.434;13.238;2022-08-30T21:50:18;1.95;;;0.95;;
32329;SDS011;18807;52.434;13.238;2022-08-30T21:57:52;1.50;;;0.95;;
32329;SDS011;18807;52.434;13.238;2022-08-30T22:05:28;3.20;;;1.15;;
32329;SDS011;18807;52.434;13.238;2022-08-30T22:13:02;1.88;;;0.82;;
32329;SDS011;18807;52.434;13.238;2022-08-30T22:20:37;1.08;;;0.80;;
32329;SDS011;18807;52.434;13.238;2022-08-30T22:28:12;1.50;;;1.10;;
32329;SDS011;18807;52.434;13.238;2022-08-30T22:35:47;1.10;;;0.90;;
32329;SDS011;18807;52.434;13.238;2022-08-30T22:50:56;1.45;;;0.88;;
32329;SDS011;18807;52.434;13.238;2022-08-30T22:58:30;1.30;;;0.82;;
32329;SDS011;18807;52.434;13.238;2022-08-30T23:06:05;1.95;;;0.93;;
32329;SDS011;18807;52.434;13.238;2022-08-30T23:13:39;2.08;;;0.90;;
32329;SDS011;18807;52.434;13.238;2022-08-30T23:21:16;1.95;;;1.00;;
32329;SDS011;18807;52.434;13.238;2022-08-30T23:28:52;2.13;;;1.17;;
32329;SDS011;18807;52.434;13.238;2022-08-30T23:36:45;1.55;;;1.00;;
32329;SDS011;18807;52.434;13.238;2022-08-30T23:44:36;1.95;;;1.23;;
32329;SDS011;18807;52.434;13.238;2022-08-30T23:52:29;1.60;;;0.90;;
